Miner, Missouri
Current Conditions -  °F | °C
As of 8:53 PM on Friday 21 Nov 2014 (Local Time) from KCGI Reporting Station
Overcast Overcast  
Wind Chill: 43°   Ceiling: 2200
Heat Index: 43°   Visibility: 10mi
Dew Point: 36°   Wind: 3mph
Humidity: 76%   Direction: 90°E
Pressure: 30.3"   Gusts: NA
Location:  36.9406°N, 89.5948°W
Report Text: KCGI 220253Z AUTO 09003KT 10SM OVC022 06/02 A3030 RMK AO2 RAE0155 SLP262 P0000 60000 T00610022 58010 TSNO
Loading
Personal Weather Stations






























Interactive Weather Map New forecast layout! Learn more

10-Day Weather Forecast

Advertisements
Track Severe Weather on mobile